sensor_id;sensor_type;location;lat;lon;timestamp;P1;durP1;ratioP1;P2;durP2;ratioP2
15553;SDS011;7878;44.632;10.942;2023-08-20T00:00:56;11.25;;;9.30;;
15553;SDS011;7878;44.632;10.942;2023-08-20T00:03:22;12.00;;;9.70;;
15553;SDS011;7878;44.632;10.942;2023-08-20T00:05:48;14.57;;;10.13;;
15553;SDS011;7878;44.632;10.942;2023-08-20T00:08:14;16.02;;;9.88;;
15553;SDS011;7878;44.632;10.942;2023-08-20T00:10:40;10.10;;;9.10;;
15553;SDS011;7878;44.632;10.942;2023-08-20T00:13:05;15.55;;;9.93;;
15553;SDS011;7878;44.632;10.942;2023-08-20T00:15:31;10.95;;;9.75;;
15553;SDS011;7878;44.632;10.942;2023-08-20T00:17:57;10.93;;;9.93;;
15553;SDS011;7878;44.632;10.942;2023-08-20T00:20:23;13.48;;;9.57;;
15553;SDS011;7878;44.632;10.942;2023-08-20T00:22:49;11.25;;;9.43;;
15553;SDS011;7878;44.632;10.942;2023-08-20T00:25:16;11.60;;;10.45;;
15553;SDS011;7878;44.632;10.942;2023-08-20T00:27:43;12.30;;;10.35;;
15553;SDS011;7878;44.632;10.942;2023-08-20T00:30:11;16.40;;;10.27;;
15553;SDS011;7878;44.632;10.942;2023-08-20T00:32:37;10.85;;;9.80;;
15553;SDS011;7878;44.632;10.942;2023-08-20T00:35:03;10.75;;;9.60;;
15553;SDS011;7878;44.632;10.942;2023-08-20T00:37:30;12.88;;;10.23;;
15553;SDS011;7878;44.632;10.942;2023-08-20T00:39:56;13.95;;;9.75;;
15553;SDS011;7878;44.632;10.942;2023-08-20T00:42:25;11.52;;;10.35;;
15553;SDS011;7878;44.632;10.942;2023-08-20T00:44:51;11.82;;;9.77;;
15553;SDS011;7878;44.632;10.942;2023-08-20T00:47:18;11.05;;;9.07;;
15553;SDS011;7878;44.632;10.942;2023-08-20T00:49:44;16.95;;;10.07;;
15553;SDS011;7878;44.632;10.942;2023-08-20T00:52:11;10.52;;;9.52;;
15553;SDS011;7878;44.632;10.942;2023-08-20T00:54:41;13.30;;;9.70;;
15553;SDS011;7878;44.632;10.942;2023-08-20T00:57:09;14.40;;;10.13;;
15553;SDS011;7878;44.632;10.942;2023-08-20T00:59:34;12.27;;;10.07;;
15553;SDS011;7878;44.632;10.942;2023-08-20T01:02:01;12.25;;;10.93;;
15553;SDS011;7878;44.632;10.942;2023-08-20T01:04:28;14.68;;;9.95;;
15553;SDS011;7878;44.632;10.942;2023-08-20T01:07:03;11.27;;;10.27;;
15553;SDS011;7878;44.632;10.942;2023-08-20T01:12:39;14.15;;;11.23;;
15553;SDS011;7878;44.632;10.942;2023-08-20T01:15:06;15.00;;;11.95;;
15553;SDS011;7878;44.632;10.942;2023-08-20T01:17:38;17.08;;;13.90;;
15553;SDS011;7878;44.632;10.942;2023-08-20T01:20:05;15.25;;;12.43;;
15553;SDS011;7878;44.632;10.942;2023-08-20T01:30:23;17.42;;;13.20;;
15553;SDS011;7878;44.632;10.942;2023-08-20T01:32:50;13.82;;;12.43;;
15553;SDS011;7878;44.632;10.942;2023-08-20T01:35:19;13.10;;;11.95;;
15553;SDS011;7878;44.632;10.942;2023-08-20T01:37:44;13.98;;;12.48;;
15553;SDS011;7878;44.632;10.942;2023-08-20T01:40:10;13.48;;;12.05;;
15553;SDS011;7878;44.632;10.942;2023-08-20T01:42:37;15.05;;;12.73;;
15553;SDS011;7878;44.632;10.942;2023-08-20T01:45:03;14.85;;;13.38;;
15553;SDS011;7878;44.632;10.942;2023-08-20T01:47:33;16.58;;;14.23;;
15553;SDS011;7878;44.632;10.942;2023-08-20T01:49:59;14.68;;;13.02;;
15553;SDS011;7878;44.632;10.942;2023-08-20T01:52:25;20.70;;;13.18;;
15553;SDS011;7878;44.632;10.942;2023-08-20T01:54:51;16.13;;;13.88;;
15553;SDS011;7878;44.632;10.942;2023-08-20T01:57:17;15.93;;;14.45;;
15553;SDS011;7878;44.632;10.942;2023-08-20T01:59:43;17.92;;;14.07;;
15553;SDS011;7878;44.632;10.942;2023-08-20T02:02:09;15.13;;;13.48;;
15553;SDS011;7878;44.632;10.942;2023-08-20T02:04:35;14.75;;;13.18;;
15553;SDS011;7878;44.632;10.942;2023-08-20T02:07:00;17.02;;;13.63;;
15553;SDS011;7878;44.632;10.942;2023-08-20T02:09:26;15.70;;;13.68;;
15553;SDS011;7878;44.632;10.942;2023-08-20T02:11:52;14.80;;;13.43;;
15553;SDS011;7878;44.632;10.942;2023-08-20T02:14:18;14.93;;;13.23;;
15553;SDS011;7878;44.632;10.942;2023-08-20T02:16:43;15.52;;;12.65;;
15553;SDS011;7878;44.632;10.942;2023-08-20T02:19:10;14.85;;;13.25;;
15553;SDS011;7878;44.632;10.942;2023-08-20T02:21:37;16.20;;;12.95;;
15553;SDS011;7878;44.632;10.942;2023-08-20T02:24:02;16.05;;;13.43;;
15553;SDS011;7878;44.632;10.942;2023-08-20T02:26:28;14.13;;;12.63;;
15553;SDS011;7878;44.632;10.942;2023-08-20T02:28:54;14.93;;;13.18;;
15553;SDS011;7878;44.632;10.942;2023-08-20T02:31:20;14.43;;;12.93;;
15553;SDS011;7878;44.632;10.942;2023-08-20T02:33:45;15.30;;;12.82;;
15553;SDS011;7878;44.632;10.942;2023-08-20T02:36:12;12.95;;;11.68;;
15553;SDS011;7878;44.632;10.942;2023-08-20T02:38:37;13.82;;;12.10;;
15553;SDS011;7878;44.632;10.942;2023-08-20T02:41:03;13.25;;;11.90;;
15553;SDS011;7878;44.632;10.942;2023-08-20T02:43:29;12.73;;;11.50;;
15553;SDS011;7878;44.632;10.942;2023-08-20T02:45:54;12.73;;;11.63;;
15553;SDS011;7878;44.632;10.942;2023-08-20T02:48:20;12.30;;;11.02;;
15553;SDS011;7878;44.632;10.942;2023-08-20T02:50:46;12.38;;;11.32;;
15553;SDS011;7878;44.632;10.942;2023-08-20T02:53:12;12.57;;;11.27;;
15553;SDS011;7878;44.632;10.942;2023-08-20T02:55:37;12.75;;;11.38;;
15553;SDS011;7878;44.632;10.942;2023-08-20T02:58:03;11.48;;;10.45;;
15553;SDS011;7878;44.632;10.942;2023-08-20T03:00:29;11.20;;;10.18;;
15553;SDS011;7878;44.632;10.942;2023-08-20T03:02:55;10.77;;;9.77;;
15553;SDS011;7878;44.632;10.942;2023-08-20T03:05:21;11.38;;;10.13;;
15553;SDS011;7878;44.632;10.942;2023-08-20T03:07:47;12.23;;;11.02;;
15553;SDS011;7878;44.632;10.942;2023-08-20T03:10:14;15.02;;;11.68;;
15553;SDS011;7878;44.632;10.942;2023-08-20T03:12:40;11.63;;;10.40;;
15553;SDS011;7878;44.632;10.942;2023-08-20T03:15:06;12.70;;;10.82;;
15553;SDS011;7878;44.632;10.942;2023-08-20T03:17:32;13.40;;;12.10;;
15553;SDS011;7878;44.632;10.942;2023-08-20T03:19:58;14.18;;;11.13;;
15553;SDS011;7878;44.632;10.942;2023-08-20T03:22:26;12.57;;;11.18;;
15553;SDS011;7878;44.632;10.942;2023-08-20T03:24:52;14.25;;;12.05;;
15553;SDS011;7878;44.632;10.942;2023-08-20T03:27:18;15.02;;;12.55;;
15553;SDS011;7878;44.632;10.942;2023-08-20T03:29:45;14.90;;;12.70;;
15553;SDS011;7878;44.632;10.942;2023-08-20T03:32:11;16.63;;;12.43;;
15553;SDS011;7878;44.632;10.942;2023-08-20T03:34:37;15.00;;;11.75;;
15553;SDS011;7878;44.632;10.942;2023-08-20T03:37:03;14.57;;;12.48;;
15553;SDS011;7878;44.632;10.942;2023-08-20T03:39:29;15.95;;;13.43;;
15553;SDS011;7878;44.632;10.942;2023-08-20T03:41:56;14.90;;;13.40;;
15553;SDS011;7878;44.632;10.942;2023-08-20T03:44:22;14.38;;;13.07;;
15553;SDS011;7878;44.632;10.942;2023-08-20T03:46:48;14.70;;;13.13;;
15553;SDS011;7878;44.632;10.942;2023-08-20T03:49:14;15.90;;;14.40;;
15553;SDS011;7878;44.632;10.942;2023-08-20T03:51:40;15.05;;;13.30;;
15553;SDS011;7878;44.632;10.942;2023-08-20T03:54:07;13.93;;;12.55;;
15553;SDS011;7878;44.632;10.942;2023-08-20T03:56:36;16.92;;;13.65;;
15553;SDS011;7878;44.632;10.942;2023-08-20T03:59:01;16.33;;;13.90;;
15553;SDS011;7878;44.632;10.942;2023-08-20T04:01:27;16.17;;;14.05;;
15553;SDS011;7878;44.632;10.942;2023-08-20T04:03:53;15.98;;;14.38;;
15553;SDS011;7878;44.632;10.942;2023-08-20T04:06:18;16.08;;;14.57;;
15553;SDS011;7878;44.632;10.942;2023-08-20T04:08:44;15.10;;;13.70;;
15553;SDS011;7878;44.632;10.942;2023-08-20T04:11:10;16.10;;;14.40;;
15553;SDS011;7878;44.632;10.942;2023-08-20T04:13:35;15.73;;;14.10;;
15553;SDS011;7878;44.632;10.942;2023-08-20T04:16:01;14.82;;;12.27;;
15553;SDS011;7878;44.632;10.942;2023-08-20T04:18:27;17.00;;;12.48;;
15553;SDS011;7878;44.632;10.942;2023-08-20T04:20:53;16.75;;;12.45;;
15553;SDS011;7878;44.632;10.942;2023-08-20T04:23:19;15.25;;;13.15;;
15553;SDS011;7878;44.632;10.942;2023-08-20T04:25:45;14.50;;;12.93;;
15553;SDS011;7878;44.632;10.942;2023-08-20T04:28:14;14.05;;;12.65;;
15553;SDS011;7878;44.632;10.942;2023-08-20T04:30:39;16.70;;;11.73;;
15553;SDS011;7878;44.632;10.942;2023-08-20T04:33:05;13.40;;;11.95;;
15553;SDS011;7878;44.632;10.942;2023-08-20T04:35:31;11.80;;;10.57;;
15553;SDS011;7878;44.632;10.942;2023-08-20T04:37:57;13.90;;;11.57;;
15553;SDS011;7878;44.632;10.942;2023-08-20T04:40:23;13.48;;;11.38;;
15553;SDS011;7878;44.632;10.942;2023-08-20T04:42:48;12.35;;;11.10;;
15553;SDS011;7878;44.632;10.942;2023-08-20T04:45:14;11.02;;;10.00;;
15553;SDS011;7878;44.632;10.942;2023-08-20T04:47:43;15.15;;;10.15;;
15553;SDS011;7878;44.632;10.942;2023-08-20T04:50:08;15.23;;;10.15;;
15553;SDS011;7878;44.632;10.942;2023-08-20T04:52:34;10.68;;;9.60;;
15553;SDS011;7878;44.632;10.942;2023-08-20T04:55:01;12.13;;;9.68;;
15553;SDS011;7878;44.632;10.942;2023-08-20T04:57:27;10.57;;;9.63;;
15553;SDS011;7878;44.632;10.942;2023-08-20T04:59:53;11.77;;;10.57;;
15553;SDS011;7878;44.632;10.942;2023-08-20T05:02:18;10.85;;;9.85;;
15553;SDS011;7878;44.632;10.942;2023-08-20T05:04:44;11.32;;;9.95;;
15553;SDS011;7878;44.632;10.942;2023-08-20T05:07:10;11.88;;;9.23;;
15553;SDS011;7878;44.632;10.942;2023-08-20T05:09:36;10.57;;;9.32;;
15553;SDS011;7878;44.632;10.942;2023-08-20T05:12:02;11.68;;;9.10;;
15553;SDS011;7878;44.632;10.942;2023-08-20T05:14:28;13.07;;;9.23;;
15553;SDS011;7878;44.632;10.942;2023-08-20T05:16:54;10.85;;;8.82;;
15553;SDS011;7878;44.632;10.942;2023-08-20T05:19:20;11.93;;;8.48;;
15553;SDS011;7878;44.632;10.942;2023-08-20T05:21:46;10.02;;;8.82;;
15553;SDS011;7878;44.632;10.942;2023-08-20T05:24:12;11.57;;;8.15;;
15553;SDS011;7878;44.632;10.942;2023-08-20T05:26:37;13.20;;;8.35;;
15553;SDS011;7878;44.632;10.942;2023-08-20T05:29:03;11.15;;;8.23;;
15553;SDS011;7878;44.632;10.942;2023-08-20T05:31:29;10.93;;;8.63;;
15553;SDS011;7878;44.632;10.942;2023-08-20T05:33:55;9.45;;;8.25;;
15553;SDS011;7878;44.632;10.942;2023-08-20T05:36:20;11.57;;;8.88;;
15553;SDS011;7878;44.632;10.942;2023-08-20T05:38:46;9.82;;;8.48;;
15553;SDS011;7878;44.632;10.942;2023-08-20T05:41:12;11.82;;;8.35;;
15553;SDS011;7878;44.632;10.942;2023-08-20T05:43:37;9.05;;;8.27;;
15553;SDS011;7878;44.632;10.942;2023-08-20T05:46:03;12.45;;;8.82;;
15553;SDS011;7878;44.632;10.942;2023-08-20T05:48:29;9.30;;;8.50;;
15553;SDS011;7878;44.632;10.942;2023-08-20T05:50:55;11.88;;;8.57;;
15553;SDS011;7878;44.632;10.942;2023-08-20T05:53:21;10.45;;;8.70;;
15553;SDS011;7878;44.632;10.942;2023-08-20T05:55:47;11.20;;;9.18;;
15553;SDS011;7878;44.632;10.942;2023-08-20T05:58:13;10.73;;;9.63;;
15553;SDS011;7878;44.632;10.942;2023-08-20T06:00:38;10.02;;;8.95;;
15553;SDS011;7878;44.632;10.942;2023-08-20T06:03:05;11.60;;;9.07;;
15553;SDS011;7878;44.632;10.942;2023-08-20T06:05:32;12.35;;;9.05;;
15553;SDS011;7878;44.632;10.942;2023-08-20T06:07:58;9.90;;;8.90;;
15553;SDS011;7878;44.632;10.942;2023-08-20T06:10:24;10.60;;;9.50;;
15553;SDS011;7878;44.632;10.942;2023-08-20T06:12:50;10.77;;;9.75;;
15553;SDS011;7878;44.632;10.942;2023-08-20T06:15:15;12.50;;;8.90;;
15553;SDS011;7878;44.632;10.942;2023-08-20T06:17:41;9.68;;;8.60;;
15553;SDS011;7878;44.632;10.942;2023-08-20T06:20:07;10.10;;;8.70;;
15553;SDS011;7878;44.632;10.942;2023-08-20T06:22:33;10.18;;;9.18;;
15553;SDS011;7878;44.632;10.942;2023-08-20T06:24:59;12.05;;;9.05;;
15553;SDS011;7878;44.632;10.942;2023-08-20T06:27:25;11.40;;;9.05;;
15553;SDS011;7878;44.632;10.942;2023-08-20T06:29:51;12.77;;;9.35;;
15553;SDS011;7878;44.632;10.942;2023-08-20T06:32:17;12.77;;;9.57;;
15553;SDS011;7878;44.632;10.942;2023-08-20T06:34:42;11.23;;;8.57;;
15553;SDS011;7878;44.632;10.942;2023-08-20T06:37:08;10.52;;;8.98;;
15553;SDS011;7878;44.632;10.942;2023-08-20T06:39:34;10.30;;;9.00;;
15553;SDS011;7878;44.632;10.942;2023-08-20T06:41:59;14.90;;;9.27;;
15553;SDS011;7878;44.632;10.942;2023-08-20T06:44:25;14.85;;;8.88;;
15553;SDS011;7878;44.632;10.942;2023-08-20T06:46:51;13.70;;;9.40;;
15553;SDS011;7878;44.632;10.942;2023-08-20T06:49:17;15.00;;;9.98;;
15553;SDS011;7878;44.632;10.942;2023-08-20T06:51:42;11.65;;;8.65;;
15553;SDS011;7878;44.632;10.942;2023-08-20T06:54:08;11.68;;;9.23;;
15553;SDS011;7878;44.632;10.942;2023-08-20T06:56:34;10.23;;;9.23;;
15553;SDS011;7878;44.632;10.942;2023-08-20T06:59:00;15.48;;;8.75;;
15553;SDS011;7878;44.632;10.942;2023-08-20T07:01:28;15.27;;;10.52;;
15553;SDS011;7878;44.632;10.942;2023-08-20T07:03:54;16.65;;;9.80;;
15553;SDS011;7878;44.632;10.942;2023-08-20T07:06:19;16.23;;;8.73;;
15553;SDS011;7878;44.632;10.942;2023-08-20T07:08:45;14.63;;;10.75;;
15553;SDS011;7878;44.632;10.942;2023-08-20T07:11:11;10.48;;;9.57;;
15553;SDS011;7878;44.632;10.942;2023-08-20T07:13:36;11.18;;;9.52;;
15553;SDS011;7878;44.632;10.942;2023-08-20T07:16:02;14.60;;;9.65;;
15553;SDS011;7878;44.632;10.942;2023-08-20T07:18:28;11.15;;;10.13;;
15553;SDS011;7878;44.632;10.942;2023-08-20T07:20:54;15.32;;;9.85;;
15553;SDS011;7878;44.632;10.942;2023-08-20T07:23:20;14.23;;;9.73;;
15553;SDS011;7878;44.632;10.942;2023-08-20T07:25:46;10.73;;;9.75;;
15553;SDS011;7878;44.632;10.942;2023-08-20T07:28:13;15.93;;;11.15;;
15553;SDS011;7878;44.632;10.942;2023-08-20T07:30:39;15.20;;;10.70;;
15553;SDS011;7878;44.632;10.942;2023-08-20T07:33:05;11.80;;;10.07;;
15553;SDS011;7878;44.632;10.942;2023-08-20T07:35:32;11.20;;;10.10;;
15553;SDS011;7878;44.632;10.942;2023-08-20T07:37:58;13.45;;;11.13;;
15553;SDS011;7878;44.632;10.942;2023-08-20T07:40:24;11.35;;;10.18;;
15553;SDS011;7878;44.632;10.942;2023-08-20T07:42:50;16.45;;;10.70;;
15553;SDS011;7878;44.632;10.942;2023-08-20T07:45:16;12.88;;;10.20;;
15553;SDS011;7878;44.632;10.942;2023-08-20T07:47:41;14.50;;;9.93;;
15553;SDS011;7878;44.632;10.942;2023-08-20T07:50:07;12.77;;;10.73;;
15553;SDS011;7878;44.632;10.942;2023-08-20T07:52:33;11.43;;;10.23;;
15553;SDS011;7878;44.632;10.942;2023-08-20T07:54:59;11.63;;;10.43;;
15553;SDS011;7878;44.632;10.942;2023-08-20T07:57:25;11.05;;;9.95;;
15553;SDS011;7878;44.632;10.942;2023-08-20T07:59:51;11.68;;;9.23;;
15553;SDS011;7878;44.632;10.942;2023-08-20T08:02:17;13.00;;;11.20;;
15553;SDS011;7878;44.632;10.942;2023-08-20T08:04:43;12.65;;;10.65;;
15553;SDS011;7878;44.632;10.942;2023-08-20T08:07:12;13.82;;;10.77;;
15553;SDS011;7878;44.632;10.942;2023-08-20T08:09:38;10.85;;;9.65;;
15553;SDS011;7878;44.632;10.942;2023-08-20T08:12:03;11.30;;;10.25;;
15553;SDS011;7878;44.632;10.942;2023-08-20T08:14:30;16.00;;;10.25;;
15553;SDS011;7878;44.632;10.942;2023-08-20T08:16:56;20.27;;;10.07;;
15553;SDS011;7878;44.632;10.942;2023-08-20T08:19:21;10.57;;;9.52;;
15553;SDS011;7878;44.632;10.942;2023-08-20T08:21:47;12.75;;;9.88;;
15553;SDS011;7878;44.632;10.942;2023-08-20T08:24:13;10.10;;;9.20;;
15553;SDS011;7878;44.632;10.942;2023-08-20T08:26:39;11.73;;;9.85;;
15553;SDS011;7878;44.632;10.942;2023-08-20T08:29:06;11.02;;;9.07;;
15553;SDS011;7878;44.632;10.942;2023-08-20T08:31:33;12.20;;;9.90;;
15553;SDS011;7878;44.632;10.942;2023-08-20T08:33:59;11.40;;;10.10;;
15553;SDS011;7878;44.632;10.942;2023-08-20T08:36:24;12.23;;;9.90;;
15553;SDS011;7878;44.632;10.942;2023-08-20T08:38:50;11.02;;;9.40;;
15553;SDS011;7878;44.632;10.942;2023-08-20T08:41:17;9.65;;;8.52;;
15553;SDS011;7878;44.632;10.942;2023-08-20T08:43:46;10.07;;;9.13;;
15553;SDS011;7878;44.632;10.942;2023-08-20T08:46:13;10.52;;;8.85;;
15553;SDS011;7878;44.632;10.942;2023-08-20T08:48:42;47.47;;;11.77;;
15553;SDS011;7878;44.632;10.942;2023-08-20T08:51:10;11.93;;;8.77;;
15553;SDS011;7878;44.632;10.942;2023-08-20T08:53:41;9.63;;;8.43;;
15553;SDS011;7878;44.632;10.942;2023-08-20T08:56:09;9.48;;;8.38;;
15553;SDS011;7878;44.632;10.942;2023-08-20T08:58:35;10.02;;;9.13;;
15553;SDS011;7878;44.632;10.942;2023-08-20T09:01:01;10.13;;;8.93;;
15553;SDS011;7878;44.632;10.942;2023-08-20T09:03:27;8.93;;;8.23;;
15553;SDS011;7878;44.632;10.942;2023-08-20T09:05:57;9.60;;;8.70;;
15553;SDS011;7878;44.632;10.942;2023-08-20T09:08:29;9.95;;;8.95;;
15553;SDS011;7878;44.632;10.942;2023-08-20T09:10:56;9.57;;;8.77;;
15553;SDS011;7878;44.632;10.942;2023-08-20T09:13:24;10.35;;;8.88;;
15553;SDS011;7878;44.632;10.942;2023-08-20T09:16:02;10.05;;;8.93;;
15553;SDS011;7878;44.632;10.942;2023-08-20T09:18:29;10.63;;;8.70;;
15553;SDS011;7878;44.632;10.942;2023-08-20T09:20:56;9.43;;;8.45;;
15553;SDS011;7878;44.632;10.942;2023-08-20T09:23:22;9.75;;;8.95;;
15553;SDS011;7878;44.632;10.942;2023-08-20T09:25:48;10.07;;;9.13;;
15553;SDS011;7878;44.632;10.942;2023-08-20T09:28:14;9.73;;;7.75;;
15553;SDS011;7878;44.632;10.942;2023-08-20T09:30:40;9.43;;;8.50;;
15553;SDS011;7878;44.632;10.942;2023-08-20T09:33:19;11.82;;;8.68;;
15553;SDS011;7878;44.632;10.942;2023-08-20T09:35:51;10.13;;;8.85;;
15553;SDS011;7878;44.632;10.942;2023-08-20T09:38:19;10.18;;;9.25;;
15553;SDS011;7878;44.632;10.942;2023-08-20T09:40:49;10.52;;;8.88;;
15553;SDS011;7878;44.632;10.942;2023-08-20T09:43:17;9.95;;;9.13;;
15553;SDS011;7878;44.632;10.942;2023-08-20T09:45:46;10.65;;;8.68;;
15553;SDS011;7878;44.632;10.942;2023-08-20T09:48:18;10.02;;;9.00;;
15553;SDS011;7878;44.632;10.942;2023-08-20T09:50:46;9.95;;;9.05;;
15553;SDS011;7878;44.632;10.942;2023-08-20T09:53:23;10.60;;;9.35;;
15553;SDS011;7878;44.632;10.942;2023-08-20T09:55:52;9.90;;;8.98;;
15553;SDS011;7878;44.632;10.942;2023-08-20T09:58:28;9.85;;;9.05;;
15553;SDS011;7878;44.632;10.942;2023-08-20T10:00:56;10.40;;;9.32;;
15553;SDS011;7878;44.632;10.942;2023-08-20T10:03:22;12.48;;;9.07;;
15553;SDS011;7878;44.632;10.942;2023-08-20T10:05:48;10.75;;;9.40;;
15553;SDS011;7878;44.632;10.942;2023-08-20T10:08:15;10.48;;;9.23;;
15553;SDS011;7878;44.632;10.942;2023-08-20T10:10:41;13.27;;;9.02;;
15553;SDS011;7878;44.632;10.942;2023-08-20T10:13:07;8.60;;;7.80;;
15553;SDS011;7878;44.632;10.942;2023-08-20T10:15:33;9.95;;;8.98;;
15553;SDS011;7878;44.632;10.942;2023-08-20T10:18:01;11.60;;;9.18;;
15553;SDS011;7878;44.632;10.942;2023-08-20T10:20:30;9.57;;;8.70;;
15553;SDS011;7878;44.632;10.942;2023-08-20T10:22:59;10.18;;;8.93;;
15553;SDS011;7878;44.632;10.942;2023-08-20T10:25:27;10.40;;;9.40;;
15553;SDS011;7878;44.632;10.942;2023-08-20T10:27:54;12.25;;;9.30;;
15553;SDS011;7878;44.632;10.942;2023-08-20T10:30:35;10.57;;;9.68;;
15553;SDS011;7878;44.632;10.942;2023-08-20T10:33:01;10.38;;;9.48;;
15553;SDS011;7878;44.632;10.942;2023-08-20T10:35:29;11.52;;;9.27;;
15553;SDS011;7878;44.632;10.942;2023-08-20T10:38:13;9.50;;;8.60;;
15553;SDS011;7878;44.632;10.942;2023-08-20T10:40:49;9.18;;;8.13;;
15553;SDS011;7878;44.632;10.942;2023-08-20T10:46:07;8.57;;;7.72;;
15553;SDS011;7878;44.632;10.942;2023-08-20T10:48:57;8.75;;;8.05;;
15553;SDS011;7878;44.632;10.942;2023-08-20T10:59:29;8.40;;;7.60;;
15553;SDS011;7878;44.632;10.942;2023-08-20T11:01:58;9.80;;;8.90;;
15553;SDS011;7878;44.632;10.942;2023-08-20T11:04:25;9.63;;;8.65;;
15553;SDS011;7878;44.632;10.942;2023-08-20T11:06:54;12.70;;;8.55;;
15553;SDS011;7878;44.632;10.942;2023-08-20T11:09:32;10.60;;;8.95;;
15553;SDS011;7878;44.632;10.942;2023-08-20T11:11:58;9.48;;;8.30;;
15553;SDS011;7878;44.632;10.942;2023-08-20T11:14:24;8.88;;;8.10;;
15553;SDS011;7878;44.632;10.942;2023-08-20T11:16:50;9.30;;;8.50;;
15553;SDS011;7878;44.632;10.942;2023-08-20T11:19:20;11.52;;;8.20;;
15553;SDS011;7878;44.632;10.942;2023-08-20T11:21:46;9.18;;;8.13;;
15553;SDS011;7878;44.632;10.942;2023-08-20T11:24:13;9.77;;;8.93;;
15553;SDS011;7878;44.632;10.942;2023-08-20T11:26:39;8.88;;;8.18;;
15553;SDS011;7878;44.632;10.942;2023-08-20T11:29:06;10.60;;;7.80;;
15553;SDS011;7878;44.632;10.942;2023-08-20T11:31:33;16.33;;;7.40;;
15553;SDS011;7878;44.632;10.942;2023-08-20T11:33:58;9.15;;;8.30;;
15553;SDS011;7878;44.632;10.942;2023-08-20T11:36:24;8.00;;;7.03;;
15553;SDS011;7878;44.632;10.942;2023-08-20T11:38:50;7.80;;;7.20;;
15553;SDS011;7878;44.632;10.942;2023-08-20T11:41:20;10.55;;;8.25;;
15553;SDS011;7878;44.632;10.942;2023-08-20T11:43:47;10.73;;;7.63;;
15553;SDS011;7878;44.632;10.942;2023-08-20T11:46:13;10.93;;;8.48;;
15553;SDS011;7878;44.632;10.942;2023-08-20T11:48:59;9.07;;;8.27;;
15553;SDS011;7878;44.632;10.942;2023-08-20T11:51:41;9.50;;;8.35;;
15553;SDS011;7878;44.632;10.942;2023-08-20T11:54:11;9.00;;;8.20;;
15553;SDS011;7878;44.632;10.942;2023-08-20T11:56:48;8.70;;;8.00;;
15553;SDS011;7878;44.632;10.942;2023-08-20T11:59:15;9.23;;;8.43;;
15553;SDS011;7878;44.632;10.942;2023-08-20T12:01:42;8.75;;;7.97;;
15553;SDS011;7878;44.632;10.942;2023-08-20T12:04:08;9.60;;;8.70;;
15553;SDS011;7878;44.632;10.942;2023-08-20T12:06:35;10.60;;;8.48;;
15553;SDS011;7878;44.632;10.942;2023-08-20T12:09:18;12.32;;;8.55;;
15553;SDS011;7878;44.632;10.942;2023-08-20T12:11:49;9.30;;;8.38;;
15553;SDS011;7878;44.632;10.942;2023-08-20T12:14:16;9.40;;;8.18;;
15553;SDS011;7878;44.632;10.942;2023-08-20T12:16:45;9.98;;;8.07;;
15553;SDS011;7878;44.632;10.942;2023-08-20T12:19:11;8.32;;;7.72;;
15553;SDS011;7878;44.632;10.942;2023-08-20T12:21:38;8.32;;;7.50;;
15553;SDS011;7878;44.632;10.942;2023-08-20T12:24:05;10.52;;;7.47;;
15553;SDS011;7878;44.632;10.942;2023-08-20T12:26:31;8.63;;;7.88;;
15553;SDS011;7878;44.632;10.942;2023-08-20T12:28:57;8.30;;;7.70;;
15553;SDS011;7878;44.632;10.942;2023-08-20T12:31:22;8.20;;;7.60;;
15553;SDS011;7878;44.632;10.942;2023-08-20T12:33:48;8.68;;;7.82;;
15553;SDS011;7878;44.632;10.942;2023-08-20T12:36:14;8.80;;;7.95;;
15553;SDS011;7878;44.632;10.942;2023-08-20T12:38:39;8.45;;;7.55;;
15553;SDS011;7878;44.632;10.942;2023-08-20T12:41:06;8.48;;;7.78;;
15553;SDS011;7878;44.632;10.942;2023-08-20T12:43:32;8.93;;;7.97;;
15553;SDS011;7878;44.632;10.942;2023-08-20T12:45:57;8.38;;;7.60;;
15553;SDS011;7878;44.632;10.942;2023-08-20T12:48:23;8.27;;;7.38;;
15553;SDS011;7878;44.632;10.942;2023-08-20T12:50:49;8.52;;;7.72;;
15553;SDS011;7878;44.632;10.942;2023-08-20T12:53:15;7.88;;;7.18;;
15553;SDS011;7878;44.632;10.942;2023-08-20T12:55:40;7.65;;;7.03;;
15553;SDS011;7878;44.632;10.942;2023-08-20T12:58:06;7.35;;;6.65;;
15553;SDS011;7878;44.632;10.942;2023-08-20T13:00:32;7.85;;;7.25;;
15553;SDS011;7878;44.632;10.942;2023-08-20T13:02:58;7.57;;;6.88;;
15553;SDS011;7878;44.632;10.942;2023-08-20T13:05:24;8.55;;;6.50;;
15553;SDS011;7878;44.632;10.942;2023-08-20T13:07:51;8.25;;;7.28;;
15553;SDS011;7878;44.632;10.942;2023-08-20T13:10:18;7.85;;;7.10;;
15553;SDS011;7878;44.632;10.942;2023-08-20T13:12:47;9.75;;;7.90;;
15553;SDS011;7878;44.632;10.942;2023-08-20T13:15:16;8.52;;;7.88;;
15553;SDS011;7878;44.632;10.942;2023-08-20T13:17:42;11.85;;;7.22;;
15553;SDS011;7878;44.632;10.942;2023-08-20T13:20:08;7.90;;;7.20;;
15553;SDS011;7878;44.632;10.942;2023-08-20T13:22:34;10.23;;;8.02;;
15553;SDS011;7878;44.632;10.942;2023-08-20T13:25:00;8.02;;;7.30;;
15553;SDS011;7878;44.632;10.942;2023-08-20T13:27:26;7.85;;;7.22;;
15553;SDS011;7878;44.632;10.942;2023-08-20T13:29:52;8.32;;;7.63;;
15553;SDS011;7878;44.632;10.942;2023-08-20T13:32:18;9.25;;;8.35;;
15553;SDS011;7878;44.632;10.942;2023-08-20T13:34:44;8.70;;;8.00;;
15553;SDS011;7878;44.632;10.942;2023-08-20T13:37:09;8.27;;;7.65;;
15553;SDS011;7878;44.632;10.942;2023-08-20T13:39:35;7.70;;;6.97;;
15553;SDS011;7878;44.632;10.942;2023-08-20T13:42:01;8.73;;;7.65;;
15553;SDS011;7878;44.632;10.942;2023-08-20T13:44:26;8.90;;;7.63;;
15553;SDS011;7878;44.632;10.942;2023-08-20T13:46:52;7.82;;;7.22;;
15553;SDS011;7878;44.632;10.942;2023-08-20T13:49:17;7.88;;;7.15;;
15553;SDS011;7878;44.632;10.942;2023-08-20T13:51:43;10.48;;;7.85;;
15553;SDS011;7878;44.632;10.942;2023-08-20T13:54:09;8.25;;;7.60;;
15553;SDS011;7878;44.632;10.942;2023-08-20T13:56:34;9.27;;;8.00;;
15553;SDS011;7878;44.632;10.942;2023-08-20T13:59:00;7.97;;;7.28;;
15553;SDS011;7878;44.632;10.942;2023-08-20T14:01:26;8.57;;;7.78;;
15553;SDS011;7878;44.632;10.942;2023-08-20T14:03:51;7.80;;;7.20;;
15553;SDS011;7878;44.632;10.942;2023-08-20T14:06:17;9.77;;;7.28;;
15553;SDS011;7878;44.632;10.942;2023-08-20T14:08:43;8.85;;;7.05;;
15553;SDS011;7878;44.632;10.942;2023-08-20T14:11:08;8.25;;;7.45;;
15553;SDS011;7878;44.632;10.942;2023-08-20T14:13:34;8.65;;;7.75;;
15553;SDS011;7878;44.632;10.942;2023-08-20T14:16:00;8.23;;;7.25;;
15553;SDS011;7878;44.632;10.942;2023-08-20T14:18:26;7.88;;;7.07;;
15553;SDS011;7878;44.632;10.942;2023-08-20T14:20:51;8.27;;;7.47;;
15553;SDS011;7878;44.632;10.942;2023-08-20T14:23:17;8.40;;;7.57;;
15553;SDS011;7878;44.632;10.942;2023-08-20T14:25:43;8.95;;;7.07;;
15553;SDS011;7878;44.632;10.942;2023-08-20T14:28:09;9.63;;;7.57;;
15553;SDS011;7878;44.632;10.942;2023-08-20T14:30:38;11.35;;;7.40;;
15553;SDS011;7878;44.632;10.942;2023-08-20T14:33:04;7.90;;;7.13;;
15553;SDS011;7878;44.632;10.942;2023-08-20T14:35:31;8.20;;;7.35;;
15553;SDS011;7878;44.632;10.942;2023-08-20T14:37:57;7.43;;;6.68;;
15553;SDS011;7878;44.632;10.942;2023-08-20T14:40:23;8.23;;;7.53;;
15553;SDS011;7878;44.632;10.942;2023-08-20T14:42:49;8.13;;;7.35;;
15553;SDS011;7878;44.632;10.942;2023-08-20T14:45:15;8.38;;;7.07;;
15553;SDS011;7878;44.632;10.942;2023-08-20T14:47:41;9.68;;;7.53;;
15553;SDS011;7878;44.632;10.942;2023-08-20T14:50:07;7.90;;;7.20;;
15553;SDS011;7878;44.632;10.942;2023-08-20T14:52:33;7.70;;;6.93;;